createdAt,value
2017-11-06T00:00:55.154Z,7.47
2017-11-06T00:03:23.229Z,7.20
2017-11-06T00:05:52.339Z,8.00
2017-11-06T00:08:19.870Z,8.50
2017-11-06T00:10:47.424Z,7.40
2017-11-06T00:13:15.036Z,7.90
2017-11-06T00:15:42.766Z,7.90
2017-11-06T00:18:11.121Z,7.57
2017-11-06T00:20:38.750Z,7.50
2017-11-06T00:23:06.594Z,7.50
2017-11-06T00:25:34.356Z,7.17
2017-11-06T00:28:01.908Z,8.20
2017-11-06T00:30:29.752Z,7.50
2017-11-06T00:32:57.789Z,7.73
2017-11-06T00:35:25.289Z,8.27
2017-11-06T00:37:52.917Z,8.17
2017-11-06T00:42:54.633Z,9.20
2017-11-06T00:45:22.386Z,9.67
2017-11-06T00:47:49.914Z,9.00
2017-11-06T00:50:17.519Z,8.07
2017-11-06T00:52:45.185Z,8.37
2017-11-06T00:55:12.820Z,8.10
2017-11-06T00:57:40.374Z,8.60
2017-11-06T01:00:07.989Z,8.77
2017-11-06T01:02:35.983Z,9.37
2017-11-06T01:05:03.602Z,9.33
2017-11-06T01:07:31.179Z,9.27
2017-11-06T01:09:58.714Z,9.10
2017-11-06T01:12:26.364Z,9.40
2017-11-06T01:14:54.057Z,9.93
2017-11-06T01:17:21.984Z,9.00
2017-11-06T01:19:49.594Z,9.13
2017-11-06T01:22:18.141Z,9.50
2017-11-06T01:24:46.340Z,9.50
2017-11-06T01:27:14.485Z,10.10
2017-11-06T01:29:42.015Z,10.00
2017-11-06T01:32:09.797Z,9.70
2017-11-06T01:34:38.704Z,9.63
2017-11-06T01:37:06.600Z,10.20
2017-11-06T01:39:34.353Z,9.07
2017-11-06T01:42:01.928Z,9.10
2017-11-06T01:44:29.551Z,8.87
2017-11-06T01:46:57.498Z,8.50
2017-11-06T01:49:26.873Z,9.33
2017-11-06T01:51:54.804Z,9.00
2017-11-06T01:54:22.488Z,9.10
2017-11-06T01:56:58.895Z,9.20
2017-11-06T01:59:26.744Z,9.80
2017-11-06T02:01:54.417Z,8.40
2017-11-06T02:04:22.044Z,9.83
2017-11-06T02:06:49.836Z,9.60
2017-11-06T02:09:17.386Z,9.07
2017-11-06T02:11:44.971Z,9.83
2017-11-06T02:14:12.671Z,9.70
2017-11-06T02:16:40.252Z,8.47
2017-11-06T02:19:07.860Z,9.57
2017-11-06T02:21:35.396Z,8.70
2017-11-06T02:24:02.984Z,9.13
2017-11-06T02:26:30.578Z,9.53
2017-11-06T02:28:58.270Z,10.20
2017-11-06T02:31:26.865Z,10.40
2017-11-06T02:33:54.447Z,10.27
2017-11-06T02:36:21.996Z,10.67
2017-11-06T02:38:49.506Z,10.43
2017-11-06T02:41:17.066Z,10.60
2017-11-06T02:43:44.589Z,11.70
2017-11-06T02:46:12.164Z,12.47
2017-11-06T02:48:40.641Z,11.03
2017-11-06T02:51:08.258Z,11.40
2017-11-06T02:53:35.892Z,11.60
2017-11-06T02:56:04.260Z,11.43
2017-11-06T02:58:31.838Z,11.10
2017-11-06T03:00:59.590Z,11.23
2017-11-06T03:03:27.163Z,11.57
2017-11-06T03:05:55.084Z,11.30
2017-11-06T03:08:22.784Z,11.03
2017-11-06T03:10:50.405Z,10.07
2017-11-06T03:13:18.055Z,10.50
2017-11-06T03:15:45.611Z,11.77
2017-11-06T03:18:13.176Z,10.20
2017-11-06T03:20:40.704Z,10.83
2017-11-06T03:23:08.295Z,11.10
2017-11-06T03:25:36.098Z,10.50
2017-11-06T03:28:04.300Z,11.65
2017-11-06T03:30:32.103Z,11.83
2017-11-06T03:32:59.711Z,9.83
2017-11-06T03:35:27.291Z,11.82
2017-11-06T03:37:54.826Z,10.77
2017-11-06T03:40:22.445Z,11.50
2017-11-06T03:42:50.131Z,12.10
2017-11-06T03:45:17.684Z,11.77
2017-11-06T03:47:45.240Z,11.50
2017-11-06T03:50:13.114Z,11.03
2017-11-06T03:52:40.790Z,12.63
2017-11-06T03:55:08.427Z,12.70
2017-11-06T03:57:36.097Z,11.90
2017-11-06T04:00:04.162Z,12.85
2017-11-06T04:02:31.857Z,12.52
2017-11-06T04:05:00.317Z,12.50
2017-11-06T04:07:27.954Z,13.85
2017-11-06T04:09:55.548Z,13.50
2017-11-06T04:12:23.189Z,12.93
2017-11-06T04:14:50.850Z,13.30
2017-11-06T04:17:18.688Z,13.13
2017-11-06T04:19:46.505Z,12.98
2017-11-06T04:22:14.252Z,13.30
2017-11-06T04:24:41.942Z,13.00
2017-11-06T04:27:09.660Z,12.33
2017-11-06T04:29:40.982Z,13.10
2017-11-06T04:32:10.199Z,13.07
2017-11-06T04:34:38.560Z,13.07
2017-11-06T04:37:07.381Z,14.00
2017-11-06T04:39:35.177Z,12.10
2017-11-06T04:42:02.913Z,13.40
2017-11-06T04:44:30.915Z,13.37
2017-11-06T04:46:58.704Z,13.90
2017-11-06T04:49:26.305Z,13.60
2017-11-06T04:51:54.120Z,14.43
2017-11-06T04:54:21.909Z,14.00
2017-11-06T04:56:49.456Z,14.00
2017-11-06T04:59:17.002Z,14.05
2017-11-06T05:01:44.575Z,13.97
2017-11-06T05:04:12.853Z,13.90
2017-11-06T05:06:40.521Z,15.07
2017-11-06T05:09:08.089Z,14.95
2017-11-06T05:11:35.673Z,14.27
2017-11-06T05:14:03.233Z,14.20
2017-11-06T05:16:30.835Z,14.27
2017-11-06T05:18:58.513Z,14.82
2017-11-06T05:21:26.467Z,15.30
2017-11-06T05:23:53.990Z,14.15
2017-11-06T05:26:21.651Z,13.90
2017-11-06T05:28:49.234Z,13.27
2017-11-06T05:31:17.022Z,13.77
2017-11-06T05:33:44.573Z,14.70
2017-11-06T05:36:12.215Z,15.30
2017-11-06T05:38:39.857Z,14.20
2017-11-06T05:41:08.438Z,13.80
2017-11-06T05:43:36.226Z,16.30
2017-11-06T05:46:03.915Z,14.70
2017-11-06T05:48:31.609Z,14.30
2017-11-06T05:50:59.186Z,14.38
2017-11-06T05:56:00.673Z,15.38
2017-11-06T05:58:28.205Z,13.93
2017-11-06T06:00:55.779Z,15.50
2017-11-06T06:03:23.336Z,15.23
2017-11-06T06:05:50.899Z,15.10
2017-11-06T06:08:18.453Z,14.30
2017-11-06T06:10:45.992Z,15.20
2017-11-06T06:13:13.646Z,14.60
2017-11-06T06:15:41.145Z,15.05
2017-11-06T06:18:09.124Z,14.65
2017-11-06T06:20:36.709Z,15.25
2017-11-06T06:23:04.228Z,15.10
2017-11-06T06:25:31.729Z,15.27
2017-11-06T06:28:03.065Z,15.95
2017-11-06T06:30:30.570Z,15.10
2017-11-06T06:32:58.118Z,14.90
2017-11-06T06:35:25.675Z,15.07
2017-11-06T06:37:53.195Z,15.50
2017-11-06T06:40:20.732Z,16.25
2017-11-06T06:42:48.274Z,14.82
2017-11-06T06:45:15.873Z,15.52
2017-11-06T06:47:43.462Z,15.90
2017-11-06T06:50:11.630Z,16.12
2017-11-06T06:52:39.281Z,15.13
2017-11-06T06:55:07.053Z,15.50
2017-11-06T06:57:35.735Z,16.15
2017-11-06T07:00:04.156Z,15.80
2017-11-06T07:02:32.216Z,15.98
2017-11-06T07:04:59.854Z,16.10
2017-11-06T07:07:27.605Z,16.40
2017-11-06T07:09:55.504Z,16.12
2017-11-06T07:12:23.103Z,15.25
2017-11-06T07:14:50.740Z,15.20
2017-11-06T07:17:18.397Z,15.67
2017-11-06T07:19:46.036Z,15.15
2017-11-06T07:22:13.633Z,15.15
2017-11-06T07:24:41.186Z,13.70
2017-11-06T07:27:08.765Z,14.65
2017-11-06T07:29:36.281Z,15.00
2017-11-06T07:32:04.698Z,14.63
2017-11-06T07:34:32.254Z,14.93
2017-11-06T07:36:59.776Z,15.15
2017-11-06T07:39:27.392Z,15.15
2017-11-06T07:41:55.028Z,15.43
2017-11-06T07:50:23.065Z,14.35
2017-11-06T07:52:50.906Z,14.30
2017-11-06T07:55:19.059Z,15.15
2017-11-06T07:57:46.677Z,15.57
2017-11-06T08:00:14.276Z,15.20
2017-11-06T08:02:41.833Z,13.82
2017-11-06T08:05:09.366Z,15.13
2017-11-06T08:07:36.942Z,14.60
2017-11-06T08:10:04.505Z,14.40
2017-11-06T08:12:32.061Z,15.50
2017-11-06T08:14:59.622Z,15.15
2017-11-06T08:17:27.272Z,15.55
2017-11-06T08:19:55.209Z,14.95
2017-11-06T08:22:22.791Z,15.70
2017-11-06T08:24:50.385Z,14.48
2017-11-06T08:27:17.923Z,14.95
2017-11-06T08:29:45.470Z,13.90
2017-11-06T08:32:13.045Z,14.63
2017-11-06T08:34:40.556Z,15.23
2017-11-06T08:37:08.138Z,13.75
2017-11-06T08:39:35.773Z,15.07
2017-11-06T08:42:03.413Z,15.55
2017-11-06T08:44:31.137Z,15.43
2017-11-06T08:46:58.647Z,15.80
2017-11-06T08:49:26.202Z,15.77
2017-11-06T08:51:54.645Z,15.35
2017-11-06T08:54:22.779Z,15.43
2017-11-06T08:56:50.387Z,14.43
2017-11-06T09:01:53.982Z,13.98
2017-11-06T09:04:21.525Z,15.10
2017-11-06T09:06:49.109Z,15.35
2017-11-06T09:09:16.670Z,14.10
2017-11-06T09:11:44.167Z,14.60
2017-11-06T09:14:11.760Z,15.18
2017-11-06T09:16:39.296Z,15.00
2017-11-06T09:19:06.833Z,14.57
2017-11-06T09:21:34.396Z,13.95
2017-11-06T09:24:01.995Z,14.60
2017-11-06T09:26:29.814Z,15.23
2017-11-06T09:28:57.348Z,14.82
2017-11-06T09:31:24.954Z,14.87
2017-11-06T09:33:52.519Z,15.15
2017-11-06T09:36:24.058Z,13.25
2017-11-06T09:38:51.579Z,15.13
2017-11-06T09:41:19.124Z,14.35
2017-11-06T09:43:46.629Z,15.55
2017-11-06T09:46:14.230Z,14.57
2017-11-06T09:48:41.796Z,14.45
2017-11-06T09:51:09.329Z,15.25
2017-11-06T09:53:36.946Z,15.70
2017-11-06T09:56:04.564Z,15.90
2017-11-06T09:58:32.129Z,14.70
2017-11-06T10:00:59.745Z,15.80
2017-11-06T10:03:27.315Z,15.32
2017-11-06T10:05:54.936Z,13.65
2017-11-06T10:08:22.593Z,14.73
2017-11-06T10:10:50.184Z,15.13
2017-11-06T10:13:17.914Z,14.90
2017-11-06T10:15:45.446Z,14.23
2017-11-06T10:18:13.071Z,14.80
2017-11-06T10:20:40.697Z,15.80
2017-11-06T10:23:08.260Z,13.70
2017-11-06T10:25:35.858Z,14.60
2017-11-06T10:28:03.380Z,13.90
2017-11-06T10:30:30.889Z,14.90
2017-11-06T10:32:58.506Z,13.60
2017-11-06T10:35:26.011Z,14.65
2017-11-06T10:37:53.613Z,14.50
2017-11-06T10:40:21.210Z,14.90
2017-11-06T10:42:48.768Z,14.87
2017-11-06T10:45:16.246Z,15.43
2017-11-06T10:47:43.780Z,14.82
2017-11-06T10:50:11.334Z,14.90
2017-11-06T10:52:38.948Z,16.35
2017-11-06T10:55:06.469Z,16.53
2017-11-06T10:57:34.049Z,15.48
2017-11-06T11:00:01.626Z,15.18
2017-11-06T11:02:29.328Z,16.12
2017-11-06T11:04:56.941Z,16.30
2017-11-06T11:07:25.382Z,16.37
2017-11-06T11:09:52.975Z,17.25
2017-11-06T11:12:21.575Z,17.10
2017-11-06T11:14:49.270Z,18.65
2017-11-06T11:17:16.890Z,17.42
2017-11-06T11:19:44.487Z,15.75
2017-11-06T11:22:12.104Z,16.60
2017-11-06T11:24:39.644Z,15.15
2017-11-06T11:27:07.260Z,15.65
2017-11-06T11:29:34.834Z,15.93
2017-11-06T11:32:02.434Z,15.80
2017-11-06T11:34:30.033Z,13.97
2017-11-06T11:36:57.611Z,15.70
2017-11-06T11:39:25.262Z,15.57
2017-11-06T11:41:52.862Z,16.40
2017-11-06T11:44:21.044Z,15.35
2017-11-06T11:46:48.721Z,15.37
2017-11-06T11:49:16.218Z,15.23
2017-11-06T11:51:43.843Z,15.82
2017-11-06T11:54:11.478Z,15.83
2017-11-06T11:56:39.194Z,15.73
2017-11-06T12:05:02.647Z,14.50
2017-11-06T12:07:31.264Z,14.40
2017-11-06T12:10:00.484Z,15.47
2017-11-06T12:12:29.098Z,15.38
2017-11-06T12:14:56.920Z,14.90
2017-11-06T12:17:24.607Z,13.90
2017-11-06T12:19:55.659Z,15.10
2017-11-06T12:25:12.914Z,14.10
2017-11-06T12:27:41.447Z,13.57
2017-11-06T12:33:06.989Z,15.87
2017-11-06T12:39:01.592Z,13.70
2017-11-06T12:41:45.303Z,14.33
2017-11-06T12:44:14.520Z,13.10
2017-11-06T13:12:17.484Z,13.40
2017-11-06T13:42:09.314Z,10.85
2017-11-06T13:53:38.608Z,10.63
2017-11-06T14:38:42.642Z,8.80
2017-11-06T14:41:15.863Z,8.67
2017-11-06T14:58:05.818Z,8.80
2017-11-06T15:18:04.900Z,9.35
2017-11-06T16:20:49.222Z,8.83
2017-11-06T16:29:52.919Z,7.87
2017-11-06T16:32:27.699Z,7.53
2017-11-06T16:34:55.614Z,7.60
2017-11-06T16:37:25.729Z,7.35
2017-11-06T16:39:54.402Z,7.15
2017-11-06T16:42:22.529Z,7.50
2017-11-06T16:47:49.000Z,7.30
2017-11-06T16:50:17.240Z,6.65
2017-11-06T16:52:46.093Z,6.87
2017-11-06T16:55:17.475Z,6.90
2017-11-06T16:58:02.866Z,6.45
2017-11-06T17:23:03.578Z,5.53
2017-11-06T17:28:13.997Z,5.90
2017-11-06T17:30:43.223Z,5.50
2017-11-06T17:33:10.804Z,6.10
2017-11-06T17:35:42.886Z,5.90
2017-11-06T17:38:10.921Z,7.00
2017-11-06T17:40:49.248Z,7.30
2017-11-06T17:43:19.765Z,5.82
2017-11-06T17:45:53.656Z,5.60
2017-11-06T17:48:24.750Z,5.87
2017-11-06T17:50:56.484Z,5.60
2017-11-06T17:56:04.065Z,6.30
2017-11-06T17:58:32.340Z,7.25
2017-11-06T18:01:00.112Z,7.37
2017-11-06T18:03:29.639Z,7.37
2017-11-06T18:06:00.011Z,6.45
2017-11-06T18:08:46.260Z,7.10
2017-11-06T18:11:16.763Z,16.37
2017-11-06T18:13:44.676Z,7.37
2017-11-06T18:16:14.532Z,7.20
2017-11-06T18:18:44.649Z,6.60
2017-11-06T18:21:17.493Z,6.32
2017-11-06T18:23:46.637Z,6.10
2017-11-06T18:26:16.422Z,5.75
2017-11-06T18:28:45.159Z,5.20
2017-11-06T18:31:14.255Z,5.35
2017-11-06T18:33:42.719Z,5.70
2017-11-06T18:36:13.319Z,5.70
2017-11-06T18:38:42.926Z,5.25
2017-11-06T18:41:12.901Z,4.95
2017-11-06T18:43:45.311Z,4.95
2017-11-06T18:46:26.596Z,5.35
2017-11-06T18:48:59.376Z,5.10
2017-11-06T18:51:27.729Z,5.50
2017-11-06T18:54:02.108Z,4.93
2017-11-06T18:56:29.766Z,5.18
2017-11-06T18:58:58.947Z,5.00
2017-11-06T19:01:27.117Z,5.60
2017-11-06T19:03:55.416Z,5.43
2017-11-06T19:06:27.350Z,6.20
2017-11-06T19:08:55.268Z,6.00
2017-11-06T19:11:24.905Z,6.20
2017-11-06T19:13:54.738Z,6.03
2017-11-06T19:16:23.626Z,5.80
2017-11-06T19:18:51.582Z,5.57
2017-11-06T19:21:20.821Z,6.40
2017-11-06T19:23:51.851Z,7.13
2017-11-06T19:26:21.814Z,5.47
2017-11-06T19:28:54.283Z,6.00
2017-11-06T19:31:27.622Z,6.03
2017-11-06T19:33:56.080Z,5.90
2017-11-06T19:36:24.360Z,6.20
2017-11-06T19:38:52.113Z,6.60
2017-11-06T19:41:24.789Z,6.15
2017-11-06T19:43:53.712Z,5.12
2017-11-06T19:46:27.082Z,5.20
2017-11-06T19:48:59.499Z,5.22
2017-11-06T19:51:27.516Z,5.60
2017-11-06T19:53:57.375Z,5.47
2017-11-06T19:56:26.432Z,5.20
2017-11-06T19:58:54.829Z,5.30
2017-11-06T20:01:22.772Z,5.75
2017-11-06T20:03:57.302Z,5.70
2017-11-06T20:09:20.738Z,6.10
2017-11-06T20:11:52.222Z,6.20
2017-11-06T20:14:20.351Z,6.25
2017-11-06T20:16:48.932Z,5.72
2017-11-06T20:19:18.639Z,6.15
2017-11-06T20:21:46.583Z,5.90
2017-11-06T20:24:16.938Z,5.85
2017-11-06T20:26:49.515Z,6.28
2017-11-06T20:31:53.467Z,6.50
2017-11-06T20:34:22.728Z,5.07
2017-11-06T20:43:15.963Z,5.40
2017-11-06T20:45:44.114Z,5.40
2017-11-06T20:48:12.090Z,6.15
2017-11-06T20:50:49.906Z,6.03
2017-11-06T20:53:30.272Z,6.00
2017-11-06T20:56:02.328Z,6.32
2017-11-06T21:01:38.579Z,6.57
2017-11-06T21:04:06.620Z,6.47
2017-11-06T21:45:36.800Z,8.82
2017-11-06T21:48:10.700Z,8.57
2017-11-06T21:50:40.258Z,8.60
2017-11-06T22:08:48.155Z,8.48
2017-11-06T22:14:02.788Z,7.55
2017-11-06T22:16:30.576Z,8.50
2017-11-06T22:18:58.523Z,8.47
